createdAt,value
2022-12-17T00:00:15.645Z,-3.90
2022-12-17T00:03:01.128Z,-3.90
2022-12-17T00:05:46.936Z,-3.90
2022-12-17T00:08:32.171Z,-3.90
2022-12-17T00:11:19.797Z,-3.90
2022-12-17T00:14:05.271Z,-3.90
2022-12-17T00:16:50.793Z,-3.90
2022-12-17T00:19:36.204Z,-3.90
2022-12-17T00:22:21.597Z,-3.90
2022-12-17T00:25:07.047Z,-3.90
2022-12-17T00:27:52.441Z,-3.90
2022-12-17T00:30:37.836Z,-4.00
2022-12-17T00:33:23.140Z,-3.90
2022-12-17T00:36:09.826Z,-3.90
2022-12-17T00:38:55.057Z,-3.90
2022-12-17T00:41:42.154Z,-3.90
2022-12-17T00:44:28.958Z,-4.00
2022-12-17T00:47:14.457Z,-4.00
2022-12-17T00:49:59.943Z,-4.00
2022-12-17T00:52:45.209Z,-4.00
2022-12-17T00:55:30.809Z,-4.00
2022-12-17T00:58:16.333Z,-4.00
2022-12-17T01:01:02.012Z,-4.00
2022-12-17T01:03:47.574Z,-4.00
2022-12-17T01:06:33.096Z,-4.00
2022-12-17T01:09:19.700Z,-4.00
2022-12-17T01:12:06.738Z,-4.00
2022-12-17T01:14:52.161Z,-4.00
2022-12-17T01:17:37.415Z,-4.10
2022-12-17T01:20:22.889Z,-4.10
2022-12-17T01:23:08.366Z,-4.10
2022-12-17T01:25:53.901Z,-4.10
2022-12-17T01:28:41.643Z,-4.10
2022-12-17T01:31:31.461Z,-4.10
2022-12-17T01:34:20.077Z,-4.00
2022-12-17T01:37:06.321Z,-4.00
2022-12-17T01:39:51.865Z,-4.10
2022-12-17T01:42:37.130Z,-4.00
2022-12-17T01:45:23.577Z,-4.00
2022-12-17T01:48:09.089Z,-4.10
2022-12-17T01:50:54.508Z,-4.00
2022-12-17T01:53:40.077Z,-4.00
2022-12-17T01:56:25.704Z,-4.00
2022-12-17T01:59:11.293Z,-4.00
2022-12-17T02:01:56.855Z,-4.00
2022-12-17T02:04:42.312Z,-3.90
2022-12-17T02:07:27.859Z,-4.00
2022-12-17T02:10:13.492Z,-3.90
2022-12-17T02:12:59.172Z,-4.00
2022-12-17T02:15:44.613Z,-3.90
2022-12-17T02:18:31.222Z,-3.90
2022-12-17T02:21:16.514Z,-4.00
2022-12-17T02:24:02.599Z,-3.90
2022-12-17T02:26:48.985Z,-3.90
2022-12-17T02:29:34.413Z,-3.90
2022-12-17T02:32:19.931Z,-3.90
2022-12-17T02:35:05.475Z,-3.80
2022-12-17T02:37:53.299Z,-3.80
2022-12-17T02:40:38.886Z,-3.80
2022-12-17T02:43:24.441Z,-3.80
2022-12-17T02:46:09.977Z,-3.80
2022-12-17T02:48:55.796Z,-3.80
2022-12-17T02:51:41.325Z,-3.70
2022-12-17T02:54:26.823Z,-3.70
2022-12-17T02:57:12.425Z,-3.70
2022-12-17T02:59:57.790Z,-3.70
2022-12-17T03:02:43.811Z,-3.70
2022-12-17T03:05:44.491Z,-3.70
2022-12-17T03:08:31.330Z,-3.70
2022-12-17T03:11:16.749Z,-3.70
2022-12-17T03:14:02.447Z,-3.70
2022-12-17T03:16:48.143Z,-3.70
2022-12-17T03:19:33.483Z,-3.70
2022-12-17T03:22:18.879Z,-3.70
2022-12-17T03:25:04.329Z,-3.60
2022-12-17T03:27:49.854Z,-3.60
2022-12-17T03:30:36.531Z,-3.70
2022-12-17T03:33:22.542Z,-3.70
2022-12-17T03:36:07.788Z,-3.70
2022-12-17T03:38:53.303Z,-3.70
2022-12-17T03:41:38.802Z,-3.70
2022-12-17T03:44:24.335Z,-3.70
2022-12-17T03:47:09.882Z,-3.70
2022-12-17T03:49:55.186Z,-3.70
2022-12-17T03:52:40.637Z,-3.60
2022-12-17T03:55:26.101Z,-3.60
2022-12-17T03:58:11.663Z,-3.70
2022-12-17T04:00:57.140Z,-3.70
2022-12-17T04:03:42.717Z,-3.70
2022-12-17T04:06:27.914Z,-3.70
2022-12-17T04:09:13.449Z,-3.70
2022-12-17T04:11:58.880Z,-3.70
2022-12-17T04:14:44.329Z,-3.60
2022-12-17T04:17:29.816Z,-3.60
2022-12-17T04:20:15.274Z,-3.60
2022-12-17T04:23:00.830Z,-3.70
2022-12-17T04:25:46.236Z,-3.70
2022-12-17T04:28:31.789Z,-3.70
2022-12-17T04:31:17.364Z,-3.70
2022-12-17T04:34:02.890Z,-3.70
2022-12-17T04:36:48.241Z,-3.70
2022-12-17T04:39:33.411Z,-3.70
2022-12-17T04:42:18.934Z,-3.70
2022-12-17T04:45:04.493Z,-3.70
2022-12-17T04:47:49.970Z,-3.70
2022-12-17T04:50:35.691Z,-3.70
2022-12-17T04:53:21.144Z,-3.70
2022-12-17T04:56:06.614Z,-3.80
2022-12-17T04:58:52.297Z,-3.80
2022-12-17T05:01:37.653Z,-3.80
2022-12-17T05:04:22.962Z,-3.80
2022-12-17T05:07:08.169Z,-3.80
2022-12-17T05:09:53.363Z,-3.80
2022-12-17T05:12:38.854Z,-3.80
2022-12-17T05:15:24.227Z,-3.80
2022-12-17T05:18:09.788Z,-3.80
2022-12-17T05:20:55.037Z,-3.80
2022-12-17T05:23:40.518Z,-3.80
2022-12-17T05:26:25.880Z,-3.80
2022-12-17T05:29:15.799Z,-3.70
2022-12-17T05:32:02.007Z,-3.70
2022-12-17T05:34:47.426Z,-3.70
2022-12-17T05:37:32.885Z,-3.70
2022-12-17T05:40:18.393Z,-3.70
2022-12-17T05:43:03.847Z,-3.70
2022-12-17T05:45:49.301Z,-3.70
2022-12-17T05:48:34.946Z,-3.70
2022-12-17T05:51:20.206Z,-3.70
2022-12-17T05:54:05.605Z,-3.80
2022-12-17T05:56:50.993Z,-3.70
2022-12-17T05:59:36.329Z,-3.70
2022-12-17T06:02:21.669Z,-3.70
2022-12-17T06:05:07.170Z,-3.70
2022-12-17T06:07:52.807Z,-3.60
2022-12-17T06:10:38.257Z,-3.60
2022-12-17T06:13:23.700Z,-3.60
2022-12-17T06:16:09.281Z,-3.60
2022-12-17T06:18:55.006Z,-3.60
2022-12-17T06:21:40.615Z,-3.60
2022-12-17T06:24:25.970Z,-3.50
2022-12-17T06:27:11.512Z,-3.50
2022-12-17T06:29:56.729Z,-3.50
2022-12-17T06:32:42.422Z,-3.40
2022-12-17T06:35:27.905Z,-3.40
2022-12-17T06:38:13.083Z,-3.30
2022-12-17T06:40:58.402Z,-3.30
2022-12-17T06:43:43.797Z,-3.30
2022-12-17T06:46:29.117Z,-3.30
2022-12-17T06:49:14.343Z,-3.30
2022-12-17T06:51:59.906Z,-3.20
2022-12-17T06:54:45.477Z,-3.20
2022-12-17T06:57:30.945Z,-3.20
2022-12-17T07:00:16.427Z,-3.20
2022-12-17T07:03:01.984Z,-3.20
2022-12-17T07:05:47.541Z,-3.20
2022-12-17T07:08:37.345Z,-3.20
2022-12-17T07:11:22.591Z,-3.10
2022-12-17T07:14:08.018Z,-3.10
2022-12-17T07:16:53.259Z,-3.10
2022-12-17T07:19:38.665Z,-3.10
2022-12-17T07:22:24.198Z,-3.10
2022-12-17T07:25:09.691Z,-3.10
2022-12-17T07:27:55.383Z,-3.00
2022-12-17T07:30:40.717Z,-3.00
2022-12-17T07:33:30.730Z,-2.90
2022-12-17T07:36:15.971Z,-2.80
2022-12-17T07:39:01.608Z,-2.60
2022-12-17T07:41:47.079Z,-2.40
2022-12-17T07:44:32.647Z,-2.30
2022-12-17T07:47:18.079Z,-2.20
2022-12-17T07:50:03.614Z,-2.20
2022-12-17T07:52:48.993Z,-2.10
2022-12-17T07:55:34.498Z,-2.10
2022-12-17T07:58:19.923Z,-2.10
2022-12-17T08:01:05.249Z,-2.10
2022-12-17T08:03:50.645Z,-2.10
2022-12-17T08:06:36.222Z,-2.10
2022-12-17T08:09:21.834Z,-2.10
2022-12-17T08:12:07.141Z,-2.00
2022-12-17T08:14:52.713Z,-2.00
2022-12-17T08:17:38.157Z,-1.90
2022-12-17T08:20:23.610Z,-1.90
2022-12-17T08:23:09.111Z,-1.80
2022-12-17T08:25:54.673Z,-1.80
2022-12-17T08:28:55.678Z,-1.80
2022-12-17T08:31:41.030Z,-1.80
2022-12-17T08:34:26.571Z,-1.80
2022-12-17T08:37:12.028Z,-1.80
2022-12-17T08:39:57.701Z,-1.80
2022-12-17T08:42:43.170Z,-1.70
2022-12-17T08:45:28.530Z,-1.70
2022-12-17T08:48:14.063Z,-1.70
2022-12-17T08:50:59.675Z,-1.60
2022-12-17T08:53:45.038Z,-1.60
2022-12-17T08:56:30.465Z,-1.50
2022-12-17T08:59:16.047Z,-1.50
2022-12-17T09:02:01.639Z,-1.30
2022-12-17T09:04:47.218Z,-1.30
2022-12-17T09:07:32.705Z,-1.20
2022-12-17T09:10:18.122Z,-1.10
2022-12-17T09:13:05.115Z,-0.90
2022-12-17T09:15:50.583Z,-0.70
2022-12-17T09:18:35.976Z,-0.50
2022-12-17T09:21:21.515Z,-0.40
2022-12-17T09:24:07.055Z,-0.30
2022-12-17T09:26:52.562Z,-0.20
2022-12-17T09:29:37.884Z,-0.10
2022-12-17T09:32:23.426Z,-0.10
2022-12-17T09:35:09.046Z,0.00
2022-12-17T09:37:54.439Z,0.10
2022-12-17T09:40:39.946Z,0.10
2022-12-17T09:43:25.441Z,0.20
2022-12-17T09:46:10.798Z,0.20
2022-12-17T09:48:56.400Z,0.30
2022-12-17T09:51:41.800Z,0.30
2022-12-17T09:54:27.184Z,0.40
2022-12-17T09:57:12.755Z,0.50
2022-12-17T09:59:58.221Z,0.70
2022-12-17T10:02:43.828Z,0.80
2022-12-17T10:05:29.498Z,0.90
2022-12-17T10:08:14.996Z,0.90
2022-12-17T10:11:00.550Z,1.00
2022-12-17T10:13:45.802Z,1.10
2022-12-17T10:16:31.204Z,1.10
2022-12-17T10:19:16.745Z,1.20
2022-12-17T10:22:02.296Z,1.30
2022-12-17T10:24:47.850Z,1.40
2022-12-17T10:27:33.440Z,1.40
2022-12-17T10:30:18.675Z,1.50
2022-12-17T10:33:04.299Z,1.60
2022-12-17T10:35:49.927Z,1.60
2022-12-17T10:38:35.325Z,1.70
2022-12-17T10:41:20.924Z,1.80
2022-12-17T10:44:06.329Z,1.80
2022-12-17T10:46:51.898Z,1.90
2022-12-17T10:49:37.832Z,1.90
2022-12-17T10:52:23.269Z,2.00
2022-12-17T10:55:08.817Z,2.10
2022-12-17T10:57:54.337Z,2.20
2022-12-17T11:00:41.953Z,2.30
2022-12-17T11:03:31.347Z,2.50
2022-12-17T11:06:16.652Z,2.50
2022-12-17T11:09:01.995Z,2.60
2022-12-17T11:11:47.431Z,2.80
2022-12-17T11:14:32.447Z,2.80
2022-12-17T11:17:18.000Z,2.90
2022-12-17T11:20:03.493Z,2.90
2022-12-17T11:22:49.129Z,3.00
2022-12-17T11:25:34.691Z,3.00
2022-12-17T11:28:20.183Z,3.00
2022-12-17T11:31:05.780Z,3.00
2022-12-17T11:33:51.234Z,3.00
2022-12-17T11:36:39.272Z,3.00
2022-12-17T11:39:24.978Z,3.00
2022-12-17T11:42:11.551Z,3.00
2022-12-17T11:44:57.020Z,3.00
2022-12-17T11:47:42.615Z,3.00
2022-12-17T11:50:27.866Z,3.10
2022-12-17T11:53:13.342Z,3.10
2022-12-17T11:55:58.700Z,3.10
2022-12-17T11:58:44.111Z,3.10
2022-12-17T12:01:33.850Z,3.20
2022-12-17T12:04:19.490Z,3.20
2022-12-17T12:07:04.847Z,3.20
2022-12-17T12:09:50.138Z,3.20
2022-12-17T12:12:35.220Z,3.20
2022-12-17T12:15:20.810Z,3.20
2022-12-17T12:18:06.205Z,3.30
2022-12-17T12:20:51.682Z,3.30
2022-12-17T12:23:37.275Z,3.30
2022-12-17T12:26:22.777Z,3.30
2022-12-17T12:29:08.166Z,3.30
2022-12-17T12:31:53.715Z,3.40
2022-12-17T12:34:39.337Z,3.40
2022-12-17T12:37:24.965Z,3.40
2022-12-17T12:40:10.655Z,3.40
2022-12-17T12:42:56.289Z,3.40
2022-12-17T12:45:41.505Z,3.40
2022-12-17T12:48:27.056Z,3.50
2022-12-17T12:51:17.031Z,3.50
2022-12-17T12:54:02.251Z,3.50
2022-12-17T12:56:47.795Z,3.50
2022-12-17T12:59:33.446Z,3.50
2022-12-17T13:02:19.033Z,3.50
2022-12-17T13:05:04.571Z,3.50
2022-12-17T13:07:31.413Z,3.50
2022-12-17T13:09:58.080Z,3.50
2022-12-17T13:12:24.970Z,3.50
2022-12-17T13:14:51.660Z,3.50
2022-12-17T13:17:18.334Z,3.50
2022-12-17T13:19:46.024Z,3.50
2022-12-17T13:22:12.776Z,3.40
2022-12-17T13:24:39.504Z,3.40
2022-12-17T13:27:06.290Z,3.40
2022-12-17T13:29:33.201Z,3.40
2022-12-17T13:32:00.124Z,3.40
2022-12-17T13:34:27.221Z,3.40
2022-12-17T13:36:53.877Z,3.40
2022-12-17T13:39:20.574Z,3.40
2022-12-17T13:41:47.289Z,3.50
2022-12-17T13:44:14.779Z,3.50
2022-12-17T13:46:46.659Z,3.50
2022-12-17T13:49:14.102Z,3.50
2022-12-17T13:51:40.814Z,3.50
2022-12-17T13:54:07.548Z,3.50
2022-12-17T13:56:34.344Z,3.50
2022-12-17T13:59:08.437Z,3.60
2022-12-17T14:01:36.171Z,3.60
2022-12-17T14:04:07.128Z,3.60
2022-12-17T14:06:34.253Z,3.60
2022-12-17T14:09:00.967Z,3.60
2022-12-17T14:11:47.374Z,3.60
2022-12-17T14:14:14.149Z,3.60
2022-12-17T14:16:42.831Z,3.60
2022-12-17T14:19:12.899Z,3.60
2022-12-17T14:21:41.217Z,3.60
2022-12-17T14:24:07.870Z,3.60
2022-12-17T14:26:34.583Z,3.60
2022-12-17T14:29:01.309Z,3.60
2022-12-17T14:31:28.807Z,3.60
2022-12-17T14:33:55.824Z,3.60
2022-12-17T14:36:24.166Z,3.60
2022-12-17T14:38:51.228Z,3.50
2022-12-17T14:41:36.654Z,3.60
2022-12-17T14:44:03.379Z,3.60
2022-12-17T14:46:30.122Z,3.60
2022-12-17T14:49:03.760Z,3.60
2022-12-17T14:51:30.474Z,3.60
2022-12-17T14:53:57.148Z,3.60
2022-12-17T14:56:23.997Z,3.70
2022-12-17T14:58:50.716Z,3.70
2022-12-17T15:01:17.517Z,3.70
2022-12-17T15:03:46.180Z,3.70
2022-12-17T15:06:13.051Z,3.70
2022-12-17T15:08:40.073Z,3.70
2022-12-17T15:11:07.191Z,3.70
2022-12-17T15:13:33.890Z,3.70
2022-12-17T15:16:00.863Z,3.70
2022-12-17T15:18:27.704Z,3.70
2022-12-17T15:20:54.487Z,3.60
2022-12-17T15:23:21.567Z,3.60
2022-12-17T15:25:48.274Z,3.60
2022-12-17T15:28:14.926Z,3.60
2022-12-17T15:30:41.700Z,3.50
2022-12-17T15:33:08.568Z,3.50
2022-12-17T15:35:35.389Z,3.50
2022-12-17T15:38:02.116Z,3.40
2022-12-17T15:40:28.780Z,3.40
2022-12-17T15:43:13.858Z,3.30
2022-12-17T15:45:40.617Z,3.20
2022-12-17T15:48:07.970Z,3.20
2022-12-17T15:50:34.736Z,3.20
2022-12-17T15:53:01.412Z,3.10
2022-12-17T15:55:28.156Z,3.10
2022-12-17T15:57:54.880Z,3.00
2022-12-17T16:00:21.572Z,3.00
2022-12-17T16:02:48.902Z,2.90
2022-12-17T16:05:15.831Z,2.90
2022-12-17T16:07:43.501Z,2.80
2022-12-17T16:10:10.201Z,2.80
2022-12-17T16:12:36.891Z,2.80
2022-12-17T16:15:04.497Z,2.70
2022-12-17T16:17:31.153Z,2.70
2022-12-17T16:19:57.979Z,2.70
2022-12-17T16:22:24.938Z,2.70
2022-12-17T16:24:52.647Z,2.70
2022-12-17T16:27:19.410Z,2.60
2022-12-17T16:29:48.119Z,2.60
2022-12-17T16:32:14.815Z,2.60
2022-12-17T16:34:41.585Z,2.60
2022-12-17T16:37:08.546Z,2.50
2022-12-17T16:39:35.217Z,2.40
2022-12-17T16:42:01.963Z,2.40
2022-12-17T16:44:28.642Z,2.40
2022-12-17T16:46:55.409Z,2.30
2022-12-17T16:49:22.563Z,2.30
2022-12-17T16:51:49.331Z,2.20
2022-12-17T16:54:16.239Z,2.20
2022-12-17T16:56:42.921Z,2.20
2022-12-17T16:59:09.648Z,2.10
2022-12-17T17:01:36.499Z,2.10
2022-12-17T17:04:03.329Z,2.10
2022-12-17T17:06:33.615Z,2.00
2022-12-17T17:09:00.823Z,2.00
2022-12-17T17:11:27.615Z,2.00
2022-12-17T17:13:54.324Z,2.00
2022-12-17T17:16:21.146Z,1.90
2022-12-17T17:18:47.911Z,1.90
2022-12-17T17:21:14.707Z,1.90
2022-12-17T17:23:41.628Z,1.80
2022-12-17T17:26:08.309Z,1.80
2022-12-17T17:28:35.360Z,1.80
2022-12-17T17:31:02.386Z,1.70
2022-12-17T17:33:29.152Z,1.70
2022-12-17T17:35:58.496Z,1.70
2022-12-17T17:38:29.126Z,1.60
2022-12-17T17:40:55.756Z,1.50
2022-12-17T17:43:22.447Z,1.50
2022-12-17T17:45:49.148Z,1.50
2022-12-17T17:48:15.903Z,1.40
2022-12-17T17:50:42.613Z,1.40
2022-12-17T17:53:09.344Z,1.30
2022-12-17T17:55:35.970Z,1.30
2022-12-17T17:58:02.707Z,1.20
2022-12-17T18:00:29.439Z,1.20
2022-12-17T18:02:56.334Z,1.20
2022-12-17T18:05:23.208Z,1.10
2022-12-17T18:07:50.038Z,1.10
2022-12-17T18:10:16.716Z,1.10
2022-12-17T18:13:01.909Z,1.10
2022-12-17T18:15:28.635Z,1.10
2022-12-17T18:17:55.293Z,1.00
2022-12-17T18:20:22.007Z,1.00
2022-12-17T18:22:50.484Z,1.00
2022-12-17T18:25:17.777Z,0.90
2022-12-17T18:27:44.569Z,1.00
2022-12-17T18:30:11.215Z,0.90
2022-12-17T18:32:37.991Z,0.90
2022-12-17T18:35:04.679Z,0.90
2022-12-17T18:37:31.397Z,0.90
2022-12-17T18:39:58.054Z,0.90
2022-12-17T18:42:43.391Z,0.90
2022-12-17T18:45:10.155Z,0.90
2022-12-17T18:47:36.845Z,0.90
2022-12-17T18:50:03.528Z,0.80
2022-12-17T18:52:30.333Z,0.80
2022-12-17T18:54:56.994Z,0.80
2022-12-17T18:57:23.646Z,0.70
2022-12-17T18:59:50.360Z,0.70
2022-12-17T19:02:17.144Z,0.70
2022-12-17T19:04:44.032Z,0.60
2022-12-17T19:07:10.745Z,0.60
2022-12-17T19:09:40.169Z,0.60
2022-12-17T19:12:06.896Z,0.50
2022-12-17T19:14:33.564Z,0.50
2022-12-17T19:17:00.315Z,0.50
2022-12-17T19:19:27.035Z,0.50
2022-12-17T19:21:54.910Z,0.50
2022-12-17T19:24:22.021Z,0.50
2022-12-17T19:26:48.789Z,0.50
2022-12-17T19:29:15.491Z,0.50
2022-12-17T19:31:42.279Z,0.50
2022-12-17T19:34:08.986Z,0.50
2022-12-17T19:36:35.626Z,0.40
2022-12-17T19:39:02.374Z,0.40
2022-12-17T19:41:29.134Z,0.30
2022-12-17T19:43:55.834Z,0.30
2022-12-17T19:46:23.228Z,0.30
2022-12-17T19:48:50.503Z,0.30
2022-12-17T19:51:17.452Z,0.30
2022-12-17T19:53:44.189Z,0.30
2022-12-17T19:56:10.945Z,0.30
2022-12-17T19:58:37.975Z,0.30
2022-12-17T20:01:04.821Z,0.20
2022-12-17T20:03:31.627Z,0.20
2022-12-17T20:05:58.418Z,0.20
2022-12-17T20:08:25.155Z,0.20
2022-12-17T20:10:52.394Z,0.10
2022-12-17T20:13:19.154Z,0.10
2022-12-17T20:15:46.006Z,0.10
2022-12-17T20:18:12.727Z,0.20
2022-12-17T20:20:39.395Z,0.20
2022-12-17T20:23:07.571Z,0.20
2022-12-17T20:25:34.289Z,0.20
2022-12-17T20:28:00.992Z,0.20
2022-12-17T20:30:27.816Z,0.20
2022-12-17T20:32:54.910Z,0.20
2022-12-17T20:35:21.851Z,0.10
2022-12-17T20:37:48.650Z,0.20
2022-12-17T20:40:15.382Z,0.10
2022-12-17T20:42:42.073Z,0.20
2022-12-17T20:45:08.788Z,0.20
2022-12-17T20:47:35.491Z,0.10
2022-12-17T20:50:02.136Z,0.10
2022-12-17T20:52:28.834Z,0.10
2022-12-17T20:54:55.587Z,0.10
2022-12-17T20:57:22.270Z,0.10
2022-12-17T20:59:49.052Z,0.10
2022-12-17T21:02:16.761Z,0.10
2022-12-17T21:04:43.619Z,0.10
2022-12-17T21:07:10.412Z,0.10
2022-12-17T21:09:37.091Z,0.10
2022-12-17T21:12:03.878Z,0.00
2022-12-17T21:14:35.254Z,0.00
2022-12-17T21:17:02.586Z,0.00
2022-12-17T21:19:32.017Z,0.00
2022-12-17T21:21:58.824Z,0.00
2022-12-17T21:24:25.527Z,0.00
2022-12-17T21:26:52.229Z,0.00
2022-12-17T21:29:19.074Z,0.00
2022-12-17T21:31:45.766Z,0.00
2022-12-17T21:34:12.568Z,0.00
2022-12-17T21:36:39.430Z,0.00
2022-12-17T21:39:09.008Z,0.00
2022-12-17T21:41:36.323Z,0.00
2022-12-17T21:44:03.001Z,0.00
2022-12-17T21:46:29.786Z,-0.10
2022-12-17T21:48:56.495Z,-0.10
2022-12-17T21:51:23.196Z,-0.10
2022-12-17T21:53:50.143Z,-0.10
2022-12-17T21:56:16.811Z,-0.10
2022-12-17T21:58:43.913Z,-0.10
2022-12-17T22:01:13.911Z,-0.10
2022-12-17T22:03:46.078Z,-0.20
2022-12-17T22:06:12.768Z,-0.10
2022-12-17T22:08:39.973Z,-0.20
2022-12-17T22:11:07.172Z,-0.20
2022-12-17T22:13:52.507Z,-0.20
2022-12-17T22:16:19.251Z,-0.10
2022-12-17T22:18:45.948Z,-0.10
2022-12-17T22:21:12.897Z,-0.20
2022-12-17T22:23:39.631Z,-0.20
2022-12-17T22:26:06.652Z,-0.20
2022-12-17T22:28:33.376Z,-0.20
2022-12-17T22:31:18.859Z,-0.20
2022-12-17T22:34:24.755Z,-0.30
2022-12-17T22:39:40.611Z,-0.30
2022-12-17T22:44:32.049Z,-0.30
2022-12-17T22:44:34.339Z,-0.30
2022-12-17T22:45:12.853Z,-0.30
2022-12-17T22:47:40.012Z,-0.30
2022-12-17T22:50:06.693Z,-0.30
2022-12-17T22:52:33.868Z,-0.30
2022-12-17T22:55:01.083Z,-0.30
2022-12-17T22:57:36.398Z,-0.30
2022-12-17T23:00:04.840Z,-0.30
2022-12-17T23:02:32.234Z,-0.30
2022-12-17T23:04:58.923Z,-0.30
2022-12-17T23:07:31.407Z,-0.30
2022-12-17T23:09:59.043Z,-0.30
2022-12-17T23:12:44.236Z,-0.20
2022-12-17T23:15:10.922Z,-0.20
2022-12-17T23:17:37.640Z,-0.10
2022-12-17T23:20:04.342Z,-0.10
2022-12-17T23:22:31.089Z,-0.10
2022-12-17T23:24:57.760Z,-0.10
2022-12-17T23:27:24.489Z,-0.10
2022-12-17T23:29:51.139Z,0.00
2022-12-17T23:32:17.813Z,0.00
2022-12-17T23:34:44.534Z,0.00
2022-12-17T23:37:11.221Z,0.00
2022-12-17T23:39:37.944Z,0.00
2022-12-17T23:42:04.746Z,0.00
2022-12-17T23:44:31.459Z,0.00
2022-12-17T23:46:58.283Z,-0.10
2022-12-17T23:49:25.045Z,-0.10
2022-12-17T23:51:51.707Z,-0.10
2022-12-17T23:54:18.492Z,-0.10
2022-12-17T23:56:45.781Z,-0.10
2022-12-17T23:59:12.521Z,-0.10
